sensor_id;sensor_type;location;lat;lon;timestamp;temperature;humidity
13808;DHT22;40769;51.512;5.494;2023-02-28T00:00:30;4.30;99.90
13808;DHT22;40769;51.512;5.494;2023-02-28T00:02:56;4.30;99.90
13808;DHT22;40769;51.512;5.494;2023-02-28T00:05:23;4.30;99.90
13808;DHT22;40769;51.512;5.494;2023-02-28T00:07:50;4.30;99.90
13808;DHT22;40769;51.512;5.494;2023-02-28T00:10:21;4.40;99.90
13808;DHT22;40769;51.512;5.494;2023-02-28T00:12:52;4.40;99.90
13808;DHT22;40769;51.512;5.494;2023-02-28T00:15:18;4.40;99.90
13808;DHT22;40769;51.512;5.494;2023-02-28T00:17:44;4.40;99.90
13808;DHT22;40769;51.512;5.494;2023-02-28T00:20:11;4.40;99.90
13808;DHT22;40769;51.512;5.494;2023-02-28T00:22:39;4.40;99.90
13808;DHT22;40769;51.512;5.494;2023-02-28T00:25:05;4.40;99.90
13808;DHT22;40769;51.512;5.494;2023-02-28T00:27:32;4.40;99.90
13808;DHT22;40769;51.512;5.494;2023-02-28T00:29:58;4.40;99.90
13808;DHT22;40769;51.512;5.494;2023-02-28T00:32:24;5.30;99.90
13808;DHT22;40769;51.512;5.494;2023-02-28T00:34:49;4.40;99.90
13808;DHT22;40769;51.512;5.494;2023-02-28T00:37:15;4.30;99.90
13808;DHT22;40769;51.512;5.494;2023-02-28T00:39:40;4.40;99.90
13808;DHT22;40769;51.512;5.494;2023-02-28T00:42:07;4.30;99.90
13808;DHT22;40769;51.512;5.494;2023-02-28T00:44:33;4.20;99.90
13808;DHT22;40769;51.512;5.494;2023-02-28T00:46:59;4.20;99.90
13808;DHT22;40769;51.512;5.494;2023-02-28T00:49:25;4.10;99.90
13808;DHT22;40769;51.512;5.494;2023-02-28T00:51:52;4.10;99.90
13808;DHT22;40769;51.512;5.494;2023-02-28T00:54:18;4.10;99.90
13808;DHT22;40769;51.512;5.494;2023-02-28T00:56:43;4.10;99.90
13808;DHT22;40769;51.512;5.494;2023-02-28T00:59:11;4.00;99.90
13808;DHT22;40769;51.512;5.494;2023-02-28T01:01:37;3.80;99.90
13808;DHT22;40769;51.512;5.494;2023-02-28T01:04:02;3.70;99.90
13808;DHT22;40769;51.512;5.494;2023-02-28T01:06:28;3.50;99.90
13808;DHT22;40769;51.512;5.494;2023-02-28T01:08:54;3.40;99.90
13808;DHT22;40769;51.512;5.494;2023-02-28T01:11:19;4.20;99.90
13808;DHT22;40769;51.512;5.494;2023-02-28T01:13:46;3.20;99.90
13808;DHT22;40769;51.512;5.494;2023-02-28T01:16:12;3.20;99.90
13808;DHT22;40769;51.512;5.494;2023-02-28T01:18:38;3.20;99.90
13808;DHT22;40769;51.512;5.494;2023-02-28T01:21:05;3.20;99.90
13808;DHT22;40769;51.512;5.494;2023-02-28T01:23:31;3.20;99.90
13808;DHT22;40769;51.512;5.494;2023-02-28T01:28:31;3.40;99.90
13808;DHT22;40769;51.512;5.494;2023-02-28T01:30:57;3.40;99.90
13808;DHT22;40769;51.512;5.494;2023-02-28T01:33:23;3.50;99.90
13808;DHT22;40769;51.512;5.494;2023-02-28T01:35:48;3.40;99.90
13808;DHT22;40769;51.512;5.494;2023-02-28T01:38:14;3.50;99.90
13808;DHT22;40769;51.512;5.494;2023-02-28T01:40:39;3.50;99.90
13808;DHT22;40769;51.512;5.494;2023-02-28T01:43:21;3.40;99.90
13808;DHT22;40769;51.512;5.494;2023-02-28T01:45:47;3.20;99.90
13808;DHT22;40769;51.512;5.494;2023-02-28T01:48:12;2.90;99.90
13808;DHT22;40769;51.512;5.494;2023-02-28T01:50:41;2.70;99.90
13808;DHT22;40769;51.512;5.494;2023-02-28T01:53:13;2.50;99.90
13808;DHT22;40769;51.512;5.494;2023-02-28T01:55:40;2.30;99.90
13808;DHT22;40769;51.512;5.494;2023-02-28T01:58:08;2.20;99.90
13808;DHT22;40769;51.512;5.494;2023-02-28T02:00:35;2.10;99.90
13808;DHT22;40769;51.512;5.494;2023-02-28T02:03:08;2.00;99.90
13808;DHT22;40769;51.512;5.494;2023-02-28T02:05:37;1.90;99.90
13808;DHT22;40769;51.512;5.494;2023-02-28T02:08:05;1.80;99.90
13808;DHT22;40769;51.512;5.494;2023-02-28T02:10:35;1.80;99.90
13808;DHT22;40769;51.512;5.494;2023-02-28T02:18:49;1.60;99.90
13808;DHT22;40769;51.512;5.494;2023-02-28T02:30:43;1.60;99.90
13808;DHT22;40769;51.512;5.494;2023-02-28T02:36:14;1.50;99.90
13808;DHT22;40769;51.512;5.494;2023-02-28T02:39:11;1.60;99.90
13808;DHT22;40769;51.512;5.494;2023-02-28T02:41:53;1.70;99.90
13808;DHT22;40769;51.512;5.494;2023-02-28T02:44:30;2.00;99.90
13808;DHT22;40769;51.512;5.494;2023-02-28T02:47:06;2.30;99.90
13808;DHT22;40769;51.512;5.494;2023-02-28T02:49:36;2.60;99.90
13808;DHT22;40769;51.512;5.494;2023-02-28T02:52:06;2.80;99.90
13808;DHT22;40769;51.512;5.494;2023-02-28T02:54:38;3.00;99.90
13808;DHT22;40769;51.512;5.494;2023-02-28T02:57:12;3.30;99.90
13808;DHT22;40769;51.512;5.494;2023-02-28T02:59:41;3.40;99.90
13808;DHT22;40769;51.512;5.494;2023-02-28T03:02:11;3.50;99.90
13808;DHT22;40769;51.512;5.494;2023-02-28T03:04:45;3.60;99.90
13808;DHT22;40769;51.512;5.494;2023-02-28T03:07:10;3.60;99.90
13808;DHT22;40769;51.512;5.494;2023-02-28T03:09:36;3.60;99.90
13808;DHT22;40769;51.512;5.494;2023-02-28T03:12:02;3.60;99.90
13808;DHT22;40769;51.512;5.494;2023-02-28T03:17:30;3.60;99.90
13808;DHT22;40769;51.512;5.494;2023-02-28T03:23:23;4.40;99.90
13808;DHT22;40769;51.512;5.494;2023-02-28T03:26:13;3.30;99.90
13808;DHT22;40769;51.512;5.494;2023-02-28T03:31:26;3.20;99.90
13808;DHT22;40769;51.512;5.494;2023-02-28T03:34:14;3.10;99.90
13808;DHT22;40769;51.512;5.494;2023-02-28T03:36:47;3.00;99.90
13808;DHT22;40769;51.512;5.494;2023-02-28T03:39:19;3.00;99.90
13808;DHT22;40769;51.512;5.494;2023-02-28T03:41:59;3.90;99.90
13808;DHT22;40769;51.512;5.494;2023-02-28T03:44:41;3.00;99.90
13808;DHT22;40769;51.512;5.494;2023-02-28T03:47:12;3.00;99.90
13808;DHT22;40769;51.512;5.494;2023-02-28T03:50:03;3.00;99.90
13808;DHT22;40769;51.512;5.494;2023-02-28T03:52:34;3.00;99.90
13808;DHT22;40769;51.512;5.494;2023-02-28T03:55:05;2.90;99.90
13808;DHT22;40769;51.512;5.494;2023-02-28T03:57:38;3.00;99.90
13808;DHT22;40769;51.512;5.494;2023-02-28T04:02:33;3.00;99.90
13808;DHT22;40769;51.512;5.494;2023-02-28T04:05:00;3.00;99.90
13808;DHT22;40769;51.512;5.494;2023-02-28T04:07:29;3.00;99.90
13808;DHT22;40769;51.512;5.494;2023-02-28T04:09:55;3.00;99.90
13808;DHT22;40769;51.512;5.494;2023-02-28T04:12:20;3.00;99.90
13808;DHT22;40769;51.512;5.494;2023-02-28T04:14:48;3.00;99.90
13808;DHT22;40769;51.512;5.494;2023-02-28T04:17:14;3.00;99.90
13808;DHT22;40769;51.512;5.494;2023-02-28T04:19:40;3.20;99.90
13808;DHT22;40769;51.512;5.494;2023-02-28T04:22:06;3.30;99.90
13808;DHT22;40769;51.512;5.494;2023-02-28T04:24:31;3.50;99.90
13808;DHT22;40769;51.512;5.494;2023-02-28T04:26:57;3.70;99.90
13808;DHT22;40769;51.512;5.494;2023-02-28T04:31:50;3.70;99.90
13808;DHT22;40769;51.512;5.494;2023-02-28T04:34:18;3.60;99.90
13808;DHT22;40769;51.512;5.494;2023-02-28T04:36:44;3.60;99.90
13808;DHT22;40769;51.512;5.494;2023-02-28T04:39:11;3.50;99.90
13808;DHT22;40769;51.512;5.494;2023-02-28T04:41:37;3.50;99.90
13808;DHT22;40769;51.512;5.494;2023-02-28T04:44:03;3.50;99.90
13808;DHT22;40769;51.512;5.494;2023-02-28T04:46:28;3.40;99.90
13808;DHT22;40769;51.512;5.494;2023-02-28T04:48:55;3.40;99.90
13808;DHT22;40769;51.512;5.494;2023-02-28T04:51:21;3.40;99.90
13808;DHT22;40769;51.512;5.494;2023-02-28T04:53:47;3.40;99.90
13808;DHT22;40769;51.512;5.494;2023-02-28T04:56:15;3.40;99.90
13808;DHT22;40769;51.512;5.494;2023-02-28T04:58:41;3.50;99.90
13808;DHT22;40769;51.512;5.494;2023-02-28T05:01:24;3.40;99.90
13808;DHT22;40769;51.512;5.494;2023-02-28T05:03:52;3.50;99.90
13808;DHT22;40769;51.512;5.494;2023-02-28T05:06:18;3.60;99.90
13808;DHT22;40769;51.512;5.494;2023-02-28T05:08:45;3.70;99.90
13808;DHT22;40769;51.512;5.494;2023-02-28T05:11:20;3.80;99.90
13808;DHT22;40769;51.512;5.494;2023-02-28T05:13:47;4.00;99.90
13808;DHT22;40769;51.512;5.494;2023-02-28T05:16:12;4.10;99.90
13808;DHT22;40769;51.512;5.494;2023-02-28T05:18:38;4.30;99.90
13808;DHT22;40769;51.512;5.494;2023-02-28T05:21:04;4.50;99.90
13808;DHT22;40769;51.512;5.494;2023-02-28T05:23:30;4.60;99.90
13808;DHT22;40769;51.512;5.494;2023-02-28T05:25:56;4.70;99.90
13808;DHT22;40769;51.512;5.494;2023-02-28T05:28:22;4.90;99.90
13808;DHT22;40769;51.512;5.494;2023-02-28T05:30:48;5.00;99.90
13808;DHT22;40769;51.512;5.494;2023-02-28T05:33:14;5.10;99.90
13808;DHT22;40769;51.512;5.494;2023-02-28T05:35:40;5.10;99.90
13808;DHT22;40769;51.512;5.494;2023-02-28T05:38:07;5.20;99.90
13808;DHT22;40769;51.512;5.494;2023-02-28T05:40:32;5.30;99.90
13808;DHT22;40769;51.512;5.494;2023-02-28T05:42:58;5.40;99.90
13808;DHT22;40769;51.512;5.494;2023-02-28T05:45:23;5.50;99.90
13808;DHT22;40769;51.512;5.494;2023-02-28T05:47:53;5.60;99.90
13808;DHT22;40769;51.512;5.494;2023-02-28T05:50:19;5.80;99.90
13808;DHT22;40769;51.512;5.494;2023-02-28T05:52:48;6.00;99.90
13808;DHT22;40769;51.512;5.494;2023-02-28T05:55:14;6.10;99.90
13808;DHT22;40769;51.512;5.494;2023-02-28T05:57:39;6.20;99.90
13808;DHT22;40769;51.512;5.494;2023-02-28T06:00:05;6.30;99.90
13808;DHT22;40769;51.512;5.494;2023-02-28T06:02:31;6.30;99.90
13808;DHT22;40769;51.512;5.494;2023-02-28T06:04:57;6.30;99.90
13808;DHT22;40769;51.512;5.494;2023-02-28T06:07:22;6.30;99.90
13808;DHT22;40769;51.512;5.494;2023-02-28T06:09:48;6.30;99.90
13808;DHT22;40769;51.512;5.494;2023-02-28T06:12:13;6.30;99.90
13808;DHT22;40769;51.512;5.494;2023-02-28T06:14:39;6.20;99.90
13808;DHT22;40769;51.512;5.494;2023-02-28T06:17:04;6.20;99.90
13808;DHT22;40769;51.512;5.494;2023-02-28T06:19:30;6.20;99.90
13808;DHT22;40769;51.512;5.494;2023-02-28T06:21:56;6.20;99.90
13808;DHT22;40769;51.512;5.494;2023-02-28T06:24:23;6.10;99.90
13808;DHT22;40769;51.512;5.494;2023-02-28T06:26:49;6.20;99.90
13808;DHT22;40769;51.512;5.494;2023-02-28T06:29:15;6.20;99.90
13808;DHT22;40769;51.512;5.494;2023-02-28T06:31:42;6.30;99.90
13808;DHT22;40769;51.512;5.494;2023-02-28T06:34:09;6.50;99.90
13808;DHT22;40769;51.512;5.494;2023-02-28T06:36:40;6.50;99.90
13808;DHT22;40769;51.512;5.494;2023-02-28T06:39:06;6.70;99.90
13808;DHT22;40769;51.512;5.494;2023-02-28T06:41:33;6.70;99.90
13808;DHT22;40769;51.512;5.494;2023-02-28T06:44:11;6.80;99.90
13808;DHT22;40769;51.512;5.494;2023-02-28T06:46:39;6.90;99.90
13808;DHT22;40769;51.512;5.494;2023-02-28T06:49:05;6.90;99.90
13808;DHT22;40769;51.512;5.494;2023-02-28T06:51:32;6.90;99.90
13808;DHT22;40769;51.512;5.494;2023-02-28T06:53:57;6.80;99.90
13808;DHT22;40769;51.512;5.494;2023-02-28T06:56:23;6.90;99.90
13808;DHT22;40769;51.512;5.494;2023-02-28T06:58:50;6.90;99.90
13808;DHT22;40769;51.512;5.494;2023-02-28T07:01:16;6.90;99.90
13808;DHT22;40769;51.512;5.494;2023-02-28T07:03:42;6.80;99.90
13808;DHT22;40769;51.512;5.494;2023-02-28T07:06:08;6.70;99.90
13808;DHT22;40769;51.512;5.494;2023-02-28T07:08:34;6.60;99.90
13808;DHT22;40769;51.512;5.494;2023-02-28T07:11:01;6.40;99.90
13808;DHT22;40769;51.512;5.494;2023-02-28T07:13:27;6.30;99.90
13808;DHT22;40769;51.512;5.494;2023-02-28T07:15:54;6.10;99.90
13808;DHT22;40769;51.512;5.494;2023-02-28T07:18:20;5.90;99.90
13808;DHT22;40769;51.512;5.494;2023-02-28T07:20:46;5.70;99.90
13808;DHT22;40769;51.512;5.494;2023-02-28T07:23:11;5.50;99.90
13808;DHT22;40769;51.512;5.494;2023-02-28T07:25:37;5.30;99.90
13808;DHT22;40769;51.512;5.494;2023-02-28T07:28:03;5.10;99.90
13808;DHT22;40769;51.512;5.494;2023-02-28T07:30:28;5.00;99.90
13808;DHT22;40769;51.512;5.494;2023-02-28T07:32:54;4.90;99.90
13808;DHT22;40769;51.512;5.494;2023-02-28T07:35:21;4.80;99.90
13808;DHT22;40769;51.512;5.494;2023-02-28T07:37:47;5.50;99.90
13808;DHT22;40769;51.512;5.494;2023-02-28T07:40:13;5.10;99.90
13808;DHT22;40769;51.512;5.494;2023-02-28T07:42:39;5.30;99.90
13808;DHT22;40769;51.512;5.494;2023-02-28T07:45:05;5.60;99.90
13808;DHT22;40769;51.512;5.494;2023-02-28T07:47:32;5.80;99.90
13808;DHT22;40769;51.512;5.494;2023-02-28T07:49:57;6.10;99.90
13808;DHT22;40769;51.512;5.494;2023-02-28T07:52:23;6.40;99.90
13808;DHT22;40769;51.512;5.494;2023-02-28T07:54:50;6.70;99.90
13808;DHT22;40769;51.512;5.494;2023-02-28T07:57:15;7.00;99.90
13808;DHT22;40769;51.512;5.494;2023-02-28T07:59:41;7.20;99.90
13808;DHT22;40769;51.512;5.494;2023-02-28T08:02:09;7.40;99.90
13808;DHT22;40769;51.512;5.494;2023-02-28T08:04:36;7.50;99.90
13808;DHT22;40769;51.512;5.494;2023-02-28T08:07:02;7.50;99.90
13808;DHT22;40769;51.512;5.494;2023-02-28T08:09:27;7.60;99.90
13808;DHT22;40769;51.512;5.494;2023-02-28T08:11:55;7.60;99.90
13808;DHT22;40769;51.512;5.494;2023-02-28T08:14:20;7.70;99.90
13808;DHT22;40769;51.512;5.494;2023-02-28T08:16:46;7.70;99.90
13808;DHT22;40769;51.512;5.494;2023-02-28T08:19:11;7.80;99.90
13808;DHT22;40769;51.512;5.494;2023-02-28T08:21:37;8.00;99.90
13808;DHT22;40769;51.512;5.494;2023-02-28T08:24:03;7.90;99.90
13808;DHT22;40769;51.512;5.494;2023-02-28T08:26:29;7.90;99.90
13808;DHT22;40769;51.512;5.494;2023-02-28T08:28:55;7.90;99.90
13808;DHT22;40769;51.512;5.494;2023-02-28T08:31:20;7.90;99.90
13808;DHT22;40769;51.512;5.494;2023-02-28T08:33:46;8.50;99.90
13808;DHT22;40769;51.512;5.494;2023-02-28T08:36:15;8.10;99.90
13808;DHT22;40769;51.512;5.494;2023-02-28T08:38:40;8.20;99.90
13808;DHT22;40769;51.512;5.494;2023-02-28T08:41:09;8.50;99.90
13808;DHT22;40769;51.512;5.494;2023-02-28T08:43:35;8.80;99.90
13808;DHT22;40769;51.512;5.494;2023-02-28T08:46:01;9.00;99.90
13808;DHT22;40769;51.512;5.494;2023-02-28T08:48:29;9.20;99.90
13808;DHT22;40769;51.512;5.494;2023-02-28T08:51:17;9.40;99.90
13808;DHT22;40769;51.512;5.494;2023-02-28T08:53:47;9.00;99.90
13808;DHT22;40769;51.512;5.494;2023-02-28T08:56:15;9.60;99.90
13808;DHT22;40769;51.512;5.494;2023-02-28T08:58:42;9.80;99.90
13808;DHT22;40769;51.512;5.494;2023-02-28T09:01:14;10.00;99.90
13808;DHT22;40769;51.512;5.494;2023-02-28T09:03:40;10.20;99.90
13808;DHT22;40769;51.512;5.494;2023-02-28T09:06:08;10.30;99.90
13808;DHT22;40769;51.512;5.494;2023-02-28T09:08:34;10.40;99.90
13808;DHT22;40769;51.512;5.494;2023-02-28T09:11:00;10.50;99.90
13808;DHT22;40769;51.512;5.494;2023-02-28T09:13:26;10.60;99.90
13808;DHT22;40769;51.512;5.494;2023-02-28T09:15:52;10.60;99.90
13808;DHT22;40769;51.512;5.494;2023-02-28T09:18:18;10.60;99.90
13808;DHT22;40769;51.512;5.494;2023-02-28T09:20:44;10.60;99.90
13808;DHT22;40769;51.512;5.494;2023-02-28T09:23:11;10.70;99.90
13808;DHT22;40769;51.512;5.494;2023-02-28T09:25:38;10.70;99.90
13808;DHT22;40769;51.512;5.494;2023-02-28T09:28:09;10.70;99.90
13808;DHT22;40769;51.512;5.494;2023-02-28T09:30:37;10.70;99.90
13808;DHT22;40769;51.512;5.494;2023-02-28T09:33:03;10.80;99.90
13808;DHT22;40769;51.512;5.494;2023-02-28T09:35:29;10.80;99.90
13808;DHT22;40769;51.512;5.494;2023-02-28T09:37:56;10.80;99.90
13808;DHT22;40769;51.512;5.494;2023-02-28T09:40:24;10.90;99.90
13808;DHT22;40769;51.512;5.494;2023-02-28T09:42:53;10.80;99.90
13808;DHT22;40769;51.512;5.494;2023-02-28T09:45:29;10.80;99.90
13808;DHT22;40769;51.512;5.494;2023-02-28T09:47:59;10.80;99.90
13808;DHT22;40769;51.512;5.494;2023-02-28T09:50:34;10.80;99.90
13808;DHT22;40769;51.512;5.494;2023-02-28T09:53:09;10.80;99.90
13808;DHT22;40769;51.512;5.494;2023-02-28T09:55:58;10.90;99.90
13808;DHT22;40769;51.512;5.494;2023-02-28T09:58:49;11.00;99.90
13808;DHT22;40769;51.512;5.494;2023-02-28T10:02:00;11.10;99.90
13808;DHT22;40769;51.512;5.494;2023-02-28T10:06:41;11.20;99.90
13808;DHT22;40769;51.512;5.494;2023-02-28T10:09:25;11.30;99.90
13808;DHT22;40769;51.512;5.494;2023-02-28T10:11:54;11.30;99.90
13808;DHT22;40769;51.512;5.494;2023-02-28T10:14:23;11.30;99.90
13808;DHT22;40769;51.512;5.494;2023-02-28T10:17:10;11.40;99.90
13808;DHT22;40769;51.512;5.494;2023-02-28T10:24:49;11.30;99.90
13808;DHT22;40769;51.512;5.494;2023-02-28T10:29:47;11.10;99.90
13808;DHT22;40769;51.512;5.494;2023-02-28T10:32:20;11.10;99.90
13808;DHT22;40769;51.512;5.494;2023-02-28T10:34:57;11.10;99.90
13808;DHT22;40769;51.512;5.494;2023-02-28T10:37:22;11.10;99.90
13808;DHT22;40769;51.512;5.494;2023-02-28T10:39:48;11.20;99.90
13808;DHT22;40769;51.512;5.494;2023-02-28T10:42:25;11.20;99.90
13808;DHT22;40769;51.512;5.494;2023-02-28T10:45:06;11.20;99.90
13808;DHT22;40769;51.512;5.494;2023-02-28T10:50:46;11.10;99.90
13808;DHT22;40769;51.512;5.494;2023-02-28T10:58:27;11.10;99.90
13808;DHT22;40769;51.512;5.494;2023-02-28T11:00:53;11.00;99.90
13808;DHT22;40769;51.512;5.494;2023-02-28T11:03:33;11.00;99.90
13808;DHT22;40769;51.512;5.494;2023-02-28T11:06:05;11.00;99.90
13808;DHT22;40769;51.512;5.494;2023-02-28T11:08:31;11.10;99.90
13808;DHT22;40769;51.512;5.494;2023-02-28T11:10:59;11.10;99.90
13808;DHT22;40769;51.512;5.494;2023-02-28T11:13:36;11.30;99.90
13808;DHT22;40769;51.512;5.494;2023-02-28T11:16:07;11.40;99.90
13808;DHT22;40769;51.512;5.494;2023-02-28T11:18:42;11.50;99.90
13808;DHT22;40769;51.512;5.494;2023-02-28T11:21:09;11.60;99.90
13808;DHT22;40769;51.512;5.494;2023-02-28T11:23:41;11.60;99.90
13808;DHT22;40769;51.512;5.494;2023-02-28T11:26:07;11.80;99.90
13808;DHT22;40769;51.512;5.494;2023-02-28T11:28:39;11.80;99.90
13808;DHT22;40769;51.512;5.494;2023-02-28T11:33:52;11.90;99.90
13808;DHT22;40769;51.512;5.494;2023-02-28T11:36:27;11.80;99.90
13808;DHT22;40769;51.512;5.494;2023-02-28T11:38:56;11.80;99.90
13808;DHT22;40769;51.512;5.494;2023-02-28T11:47:11;11.70;99.90
13808;DHT22;40769;51.512;5.494;2023-02-28T11:50:09;11.60;99.90
13808;DHT22;40769;51.512;5.494;2023-02-28T11:52:53;11.50;99.70
13808;DHT22;40769;51.512;5.494;2023-02-28T11:55:27;11.40;99.90
13808;DHT22;40769;51.512;5.494;2023-02-28T11:58:26;11.40;99.90
13808;DHT22;40769;51.512;5.494;2023-02-28T12:07:04;11.50;99.90
13808;DHT22;40769;51.512;5.494;2023-02-28T12:09:47;11.30;99.90
13808;DHT22;40769;51.512;5.494;2023-02-28T12:28:35;11.10;99.80
13808;DHT22;40769;51.512;5.494;2023-02-28T12:31:20;11.10;99.30
13808;DHT22;40769;51.512;5.494;2023-02-28T12:34:04;11.00;99.00
13808;DHT22;40769;51.512;5.494;2023-02-28T12:36:31;10.80;98.80
13808;DHT22;40769;51.512;5.494;2023-02-28T12:39:15;10.70;99.50
13808;DHT22;40769;51.512;5.494;2023-02-28T12:41:46;10.70;98.30
13808;DHT22;40769;51.512;5.494;2023-02-28T12:44:35;10.60;98.60
13808;DHT22;40769;51.512;5.494;2023-02-28T12:47:05;10.50;98.40
13808;DHT22;40769;51.512;5.494;2023-02-28T12:49:41;10.40;99.10
13808;DHT22;40769;51.512;5.494;2023-02-28T12:52:09;10.40;98.50
13808;DHT22;40769;51.512;5.494;2023-02-28T12:57:42;10.30;98.90
13808;DHT22;40769;51.512;5.494;2023-02-28T13:00:36;10.40;99.20
13808;DHT22;40769;51.512;5.494;2023-02-28T13:03:11;10.40;97.90
13808;DHT22;40769;51.512;5.494;2023-02-28T13:08:53;10.40;98.90
13808;DHT22;40769;51.512;5.494;2023-02-28T13:11:29;10.30;98.60
13808;DHT22;40769;51.512;5.494;2023-02-28T13:13:58;10.30;99.20
13808;DHT22;40769;51.512;5.494;2023-02-28T13:16:24;10.30;99.00
13808;DHT22;40769;51.512;5.494;2023-02-28T13:18:50;10.40;99.40
13808;DHT22;40769;51.512;5.494;2023-02-28T13:21:27;10.30;99.30
13808;DHT22;40769;51.512;5.494;2023-02-28T13:29:00;10.40;98.90
13808;DHT22;40769;51.512;5.494;2023-02-28T13:31:27;10.40;99.00
13808;DHT22;40769;51.512;5.494;2023-02-28T13:36:32;10.40;98.90
13808;DHT22;40769;51.512;5.494;2023-02-28T13:38:59;10.40;98.60
13808;DHT22;40769;51.512;5.494;2023-02-28T13:44:05;10.60;98.70
13808;DHT22;40769;51.512;5.494;2023-02-28T13:46:33;10.60;99.90
13808;DHT22;40769;51.512;5.494;2023-02-28T14:05:32;11.20;98.90
13808;DHT22;40769;51.512;5.494;2023-02-28T14:08:06;11.30;99.90
13808;DHT22;40769;51.512;5.494;2023-02-28T14:13:36;11.50;99.90
13808;DHT22;40769;51.512;5.494;2023-02-28T14:16:00;11.90;99.90
13808;DHT22;40769;51.512;5.494;2023-02-28T14:18:33;11.90;99.90
13808;DHT22;40769;51.512;5.494;2023-02-28T14:21:31;11.90;99.90
13808;DHT22;40769;51.512;5.494;2023-02-28T14:33:18;12.20;98.70
13808;DHT22;40769;51.512;5.494;2023-02-28T14:36:00;12.10;99.10
13808;DHT22;40769;51.512;5.494;2023-02-28T14:41:33;12.00;99.60
13808;DHT22;40769;51.512;5.494;2023-02-28T14:46:43;12.00;99.20
13808;DHT22;40769;51.512;5.494;2023-02-28T14:52:27;12.00;99.00
13808;DHT22;40769;51.512;5.494;2023-02-28T14:55:15;12.00;98.90
13808;DHT22;40769;51.512;5.494;2023-02-28T14:57:57;12.10;98.80
13808;DHT22;40769;51.512;5.494;2023-02-28T15:00:29;12.10;99.00
13808;DHT22;40769;51.512;5.494;2023-02-28T15:02:56;12.20;99.80
13808;DHT22;40769;51.512;5.494;2023-02-28T15:08:04;12.20;99.60
13808;DHT22;40769;51.512;5.494;2023-02-28T15:10:31;12.20;98.50
13808;DHT22;40769;51.512;5.494;2023-02-28T15:13:04;12.30;99.90
13808;DHT22;40769;51.512;5.494;2023-02-28T15:15:40;12.30;99.60
13808;DHT22;40769;51.512;5.494;2023-02-28T15:18:14;12.30;99.90
13808;DHT22;40769;51.512;5.494;2023-02-28T15:20:42;12.60;99.90
13808;DHT22;40769;51.512;5.494;2023-02-28T15:23:10;12.30;99.90
13808;DHT22;40769;51.512;5.494;2023-02-28T15:25:36;12.50;99.90
13808;DHT22;40769;51.512;5.494;2023-02-28T15:28:02;12.50;99.90
13808;DHT22;40769;51.512;5.494;2023-02-28T15:30:30;13.30;99.90
13808;DHT22;40769;51.512;5.494;2023-02-28T15:35:41;12.60;98.40
13808;DHT22;40769;51.512;5.494;2023-02-28T15:40:49;12.50;98.20
13808;DHT22;40769;51.512;5.494;2023-02-28T15:43:30;12.50;99.20
13808;DHT22;40769;51.512;5.494;2023-02-28T15:46:06;12.50;97.90
13808;DHT22;40769;51.512;5.494;2023-02-28T15:48:33;12.50;99.20
13808;DHT22;40769;51.512;5.494;2023-02-28T15:53:48;12.40;98.60
13808;DHT22;40769;51.512;5.494;2023-02-28T15:56:49;12.30;98.90
13808;DHT22;40769;51.512;5.494;2023-02-28T15:59:26;12.20;97.40
13808;DHT22;40769;51.512;5.494;2023-02-28T16:04:36;12.00;98.10
13808;DHT22;40769;51.512;5.494;2023-02-28T16:07:04;12.00;98.70
13808;DHT22;40769;51.512;5.494;2023-02-28T16:09:30;11.80;98.20
13808;DHT22;40769;51.512;5.494;2023-02-28T16:12:00;11.70;98.50
13808;DHT22;40769;51.512;5.494;2023-02-28T16:14:29;12.10;98.40
13808;DHT22;40769;51.512;5.494;2023-02-28T16:17:06;11.70;98.50
13808;DHT22;40769;51.512;5.494;2023-02-28T16:19:34;11.50;95.50
13808;DHT22;40769;51.512;5.494;2023-02-28T16:22:00;11.50;97.80
13808;DHT22;40769;51.512;5.494;2023-02-28T16:24:26;11.40;97.70
13808;DHT22;40769;51.512;5.494;2023-02-28T16:26:53;11.50;97.50
13808;DHT22;40769;51.512;5.494;2023-02-28T16:29:35;11.10;97.10
13808;DHT22;40769;51.512;5.494;2023-02-28T16:32:04;10.90;96.20
13808;DHT22;40769;51.512;5.494;2023-02-28T16:34:30;10.60;96.10
13808;DHT22;40769;51.512;5.494;2023-02-28T16:36:56;10.30;96.10
13808;DHT22;40769;51.512;5.494;2023-02-28T16:39:21;10.00;96.00
13808;DHT22;40769;51.512;5.494;2023-02-28T16:41:48;9.70;96.10
13808;DHT22;40769;51.512;5.494;2023-02-28T16:44:25;9.40;96.20
13808;DHT22;40769;51.512;5.494;2023-02-28T16:46:52;10.00;96.60
13808;DHT22;40769;51.512;5.494;2023-02-28T16:49:17;9.00;97.00
13808;DHT22;40769;51.512;5.494;2023-02-28T16:51:43;8.80;97.30
13808;DHT22;40769;51.512;5.494;2023-02-28T16:54:09;8.60;97.40
13808;DHT22;40769;51.512;5.494;2023-02-28T16:56:34;8.50;98.10
13808;DHT22;40769;51.512;5.494;2023-02-28T16:59:01;8.40;98.10
13808;DHT22;40769;51.512;5.494;2023-02-28T17:01:28;8.30;98.00
13808;DHT22;40769;51.512;5.494;2023-02-28T17:03:54;8.20;98.00
13808;DHT22;40769;51.512;5.494;2023-02-28T17:06:26;8.10;98.20
13808;DHT22;40769;51.512;5.494;2023-02-28T17:08:53;8.00;98.50
13808;DHT22;40769;51.512;5.494;2023-02-28T17:11:20;7.90;99.60
13808;DHT22;40769;51.512;5.494;2023-02-28T17:13:46;7.80;99.20
13808;DHT22;40769;51.512;5.494;2023-02-28T17:18:50;7.60;99.50
13808;DHT22;40769;51.512;5.494;2023-02-28T17:21:16;7.50;99.40
13808;DHT22;40769;51.512;5.494;2023-02-28T17:23:42;7.50;99.00
13808;DHT22;40769;51.512;5.494;2023-02-28T17:26:13;7.20;98.70
13808;DHT22;40769;51.512;5.494;2023-02-28T17:28:38;7.00;98.60
13808;DHT22;40769;51.512;5.494;2023-02-28T17:31:04;6.80;99.20
13808;DHT22;40769;51.512;5.494;2023-02-28T17:33:30;6.60;99.90
13808;DHT22;40769;51.512;5.494;2023-02-28T17:35:55;6.50;99.90
13808;DHT22;40769;51.512;5.494;2023-02-28T17:38:21;6.50;99.90
13808;DHT22;40769;51.512;5.494;2023-02-28T17:40:48;6.40;99.90
13808;DHT22;40769;51.512;5.494;2023-02-28T17:43:14;6.40;99.90
13808;DHT22;40769;51.512;5.494;2023-02-28T17:45:40;6.40;99.90
13808;DHT22;40769;51.512;5.494;2023-02-28T17:48:08;6.40;99.90
13808;DHT22;40769;51.512;5.494;2023-02-28T17:50:34;6.40;99.90
13808;DHT22;40769;51.512;5.494;2023-02-28T17:53:00;6.40;99.90
13808;DHT22;40769;51.512;5.494;2023-02-28T17:55:25;6.30;99.90
13808;DHT22;40769;51.512;5.494;2023-02-28T17:57:51;6.40;99.90
13808;DHT22;40769;51.512;5.494;2023-02-28T18:00:18;6.40;99.90
13808;DHT22;40769;51.512;5.494;2023-02-28T18:02:44;6.40;99.90
13808;DHT22;40769;51.512;5.494;2023-02-28T18:05:10;6.40;99.90
13808;DHT22;40769;51.512;5.494;2023-02-28T18:07:38;5.50;99.90
13808;DHT22;40769;51.512;5.494;2023-02-28T18:10:05;6.30;99.90
13808;DHT22;40769;51.512;5.494;2023-02-28T18:12:31;6.30;99.90
13808;DHT22;40769;51.512;5.494;2023-02-28T18:14:57;6.20;99.90
13808;DHT22;40769;51.512;5.494;2023-02-28T18:17:23;6.20;99.90
13808;DHT22;40769;51.512;5.494;2023-02-28T18:19:48;6.00;99.90
13808;DHT22;40769;51.512;5.494;2023-02-28T18:22:14;5.80;99.90
13808;DHT22;40769;51.512;5.494;2023-02-28T18:24:39;5.50;99.90
13808;DHT22;40769;51.512;5.494;2023-02-28T18:27:05;5.30;99.90